ADDS METAR Data INFO
IDs: Format: Raw Decoded Include TAF

Data at: 0026 UTC 11 Dec 2017

K0R0 100655Z AUTO 00000KT 10SM CLR M02/M02 A3035 RMK AO2
K0R0 100635Z AUTO 00000KT 10SM CLR M02/M02 A3035 RMK AO2
K0R0 100615Z AUTO 00000KT 10SM CLR M02/M02 A3035 RMK AO2
K0R0 100555Z AUTO 00000KT 10SM CLR M01/M02 A3035 RMK AO2
K0R0 100535Z AUTO 00000KT 10SM CLR M01/M02 A3034 RMK AO2
K0R0 100515Z AUTO 00000KT 10SM CLR M01/M02 A3034 RMK AO2
K0R0 100455Z AUTO 00000KT 10SM CLR M01/M01 A3033 RMK AO2
K0R0 100435Z AUTO 00000KT 10SM CLR M01/M01 A3032 RMK AO2
K0R0 100415Z AUTO 00000KT 10SM CLR M01/M01 A3032 RMK AO2
K0R0 100355Z AUTO 00000KT 10SM CLR M01/M01 A3032 RMK AO2
K0R0 100335Z AUTO 00000KT 10SM CLR M01/M01 A3031 RMK AO2
K0R0 100315Z AUTO 00000KT 10SM CLR M01/M01 A3031 RMK AO2
K0R0 100255Z AUTO 00000KT 10SM CLR M01/M01 A3030 RMK AO2
K0R0 100235Z AUTO 00000KT 10SM CLR M01/M01 A3030 RMK AO2
K0R0 100215Z AUTO 00000KT 10SM CLR M01/M01 A3029 RMK AO2
K0R0 100155Z AUTO 00000KT 10SM CLR M00/M01 A3029 RMK AO2
K0R0 100135Z AUTO 00000KT 10SM -UP CLR M00/M01 A3028 RMK AO2
K0R0 100115Z AUTO 00000KT 10SM CLR M00/M00 A3027 RMK AO2
K0R0 100055Z AUTO 00000KT 10SM CLR 00/M00 A3027 RMK AO2
K0R0 100035Z AUTO 00000KT 10SM CLR 00/00 A3025 RMK AO2
K0R0 100015Z AUTO 00000KT 10SM CLR 01/01 A3024 RMK AO2
K0R0 092355Z AUTO 00000KT 10SM CLR 01/01 A3022 RMK AO2
K0R0 092335Z AUTO 00000KT 10SM CLR 02/01 A3021 RMK AO2
K0R0 092310Z AUTO 00000KT 10SM -DZ CLR 04/02 A3021 RMK AO2
K0R0 092255Z AUTO 00000KT 10SM -DZ CLR 06/01 A3020 RMK AO2
K0R0 092235Z AUTO 00000KT 10SM -DZ CLR 07/01 A3020 RMK AO2
K0R0 092215Z AUTO 27006KT 10SM -DZ CLR 08/01 A3019 RMK AO2
K0R0 092155Z AUTO VRB06KT 10SM -DZ CLR 08/01 A3019 RMK AO2
K0R0 092135Z AUTO VRB06KT 10SM -DZ CLR 08/01 A3019 RMK AO2
K0R0 092115Z AUTO 26005KT 10SM -DZ CLR 08/00 A3019 RMK AO2
K0R0 092055Z AUTO 27007KT 220V300 10SM -DZ CLR 08/00 A3019 RMK AO2
K0R0 092035Z AUTO 27007KT 10SM -DZ CLR 08/M01 A3019 RMK AO2
K0R0 092015Z AUTO VRB05G11KT 10SM -DZ CLR 08/M01 A3019 RMK AO2
K0R0 091955Z AUTO 26009KT 10SM -DZ CLR 07/M01 A3019 RMK AO2
K0R0 091935Z AUTO 25006G12KT 10SM -DZ CLR 07/M02 A3019 RMK AO2
K0R0 091915Z AUTO 26007KT 10SM -DZ CLR 06/M02 A3020 RMK AO2
K0R0 091855Z AUTO 27005G13KT 10SM -DZ CLR 06/M01 A3021 RMK AO2
K0R0 091835Z AUTO VRB06KT 10SM -DZ CLR 05/M01 A3021 RMK AO2
K0R0 091815Z AUTO VRB04G12KT 10SM -DZ CLR 05/M02 A3022 RMK AO2
K0R0 091755Z AUTO 27006KT 10SM -DZ CLR 04/M01 A3023 RMK AO2
K0R0 091735Z AUTO 25006G14KT 10SM -DZ CLR 04/M02 A3024 RMK AO2
K0R0 091715Z AUTO 00000KT 10SM -DZ CLR 04/M01 A3025 RMK AO2
K0R0 091655Z AUTO 29005KT 10SM -DZ CLR 03/M01 A3025 RMK AO2
K0R0 091635Z AUTO 25005KT 10SM -DZ CLR 03/M01 A3025 RMK AO2
K0R0 091615Z AUTO 25006KT 10SM -DZ CLR 02/M01 A3026 RMK AO2
K0R0 091555Z AUTO VRB05KT 10SM -DZ CLR 01/M01 A3025 RMK AO2
K0R0 091535Z AUTO 22004KT 10SM CLR 00/M01 A3025 RMK AO2
K0R0 091515Z AUTO 21003KT 10SM CLR 00/M01 A3024 RMK AO2
K0R0 091455Z AUTO 21003KT 10SM CLR M01/M02 A3024 RMK AO2
K0R0 091435Z AUTO 00000KT 9SM CLR M02/M02 A3023 RMK AO2
K0R0 091415Z AUTO 00000KT 9SM CLR M02/M03 A3023 RMK AO2
K0R0 091355Z AUTO 00000KT 1/4SM FZFG VV002 M03/M04 A3023 RMK AO2
K0R0 091335Z AUTO 00000KT M1/4SM FZFG VV000 M04/M04 A3022 RMK AO2
K0R0 091315Z AUTO 00000KT M1/4SM FZFG VV000 M05/M05 A3022 RMK AO2
K0R0 091255Z AUTO 00000KT M1/4SM FZFG VV000 M05/M05 A3022 RMK AO2
K0R0 091235Z AUTO 00000KT M1/4SM FZFG VV000 M05/M05 A3022 RMK AO2